Time;durP1;ratioP1;P1;durP2;ratioP2;P2;SDS_P1;SDS_P2;PMS_P1;PMS_P2;Temp;Humidity;BMP_temperature;BMP_pressure;BME280_temperature;BME280_humidity;BME280_pressure;Samples;Min_cycle;Max_cycle;Signal;HPM_P1;HPM_P2
2022/09/09 00:00:27;;;;;;;2.30;2.20;;;20.60;99.90;;;;;;4992701;28;20871;-68
2022/09/09 00:03:28;;;;;;;3.07;2.10;;;20.60;99.90;;;;;;4992631;28;20453;-66
2022/09/09 00:06:11;;;;;;;2.53;2.43;;;20.60;99.90;;;;;;4974192;28;20474;-66
2022/09/09 00:08:54;;;;;;;3.30;3.00;;;20.50;99.90;;;;;;4973936;28;20427;-67
2022/09/09 00:11:41;;;;;;;2.57;2.37;;;20.50;99.90;;;;;;4974586;28;20408;-66
2022/09/09 00:14:31;;;;;;;2.80;2.63;;;20.50;99.90;;;;;;4974417;28;20483;-66
2022/09/09 00:17:20;;;;;;;2.83;2.60;;;20.40;99.90;;;;;;4987066;28;20943;-66
2022/09/09 00:20:29;;;;;;;3.50;3.20;;;20.40;99.90;;;;;;4973913;28;20907;-66
2022/09/09 00:23:14;;;;;;;2.90;2.70;;;20.40;99.90;;;;;;4964973;28;20443;-66
2022/09/09 00:25:51;;;;;;;3.00;2.90;;;20.40;99.90;;;;;;4973941;28;20418;-66
2022/09/09 00:28:26;;;;;;;3.00;2.80;;;20.40;99.90;;;;;;4977620;28;20461;-67
2022/09/09 00:30:52;;;;;;;2.90;2.70;;;20.40;99.90;;;;;;4981963;28;20423;-67
2022/09/09 00:33:24;;;;;;;2.90;2.80;;;20.40;99.90;;;;;;4978284;28;20496;-66
2022/09/09 00:35:58;;;;;;;2.40;2.30;;;20.40;99.90;;;;;;5000418;28;20458;-67
2022/09/09 00:38:35;;;;;;;2.60;2.50;;;20.40;99.90;;;;;;5012999;28;20452;-66
2022/09/09 00:41:13;;;;;;;3.57;3.27;;;20.30;99.90;;;;;;5013142;28;20448;-66
2022/09/09 00:43:40;;;;;;;2.70;2.60;;;20.30;99.90;;;;;;5012141;28;20406;-66
2022/09/09 00:46:37;;;;;;;3.60;2.90;;;20.20;99.90;;;;;;5012653;28;20414;-67
2022/09/09 00:49:26;;;;;;;3.10;2.90;;;20.10;99.90;;;;;;5012914;28;20403;-67
2022/09/09 00:52:10;;;;;;;3.43;3.13;;;20.00;99.90;;;;;;4991554;28;20762;-66
2022/09/09 00:54:50;;;;;;;3.57;2.70;;;19.90;99.90;;;;;;4992474;28;20968;-66
2022/09/09 00:57:38;;;;;;;3.53;3.20;;;20.00;99.90;;;;;;4993305;28;20407;-66
2022/09/09 01:00:26;;;;;;;2.57;2.40;;;20.00;99.90;;;;;;5010198;28;20955;-66
2022/09/09 01:03:24;;;;;;;2.53;2.33;;;20.00;99.90;;;;;;5011495;28;20465;-67
2022/09/09 01:06:31;;;;;;;3.23;3.00;;;20.00;99.90;;;;;;5011546;28;20453;-66
2022/09/09 01:09:34;;;;;;;3.03;2.93;;;20.00;99.90;;;;;;5012932;28;20406;-66
2022/09/09 01:12:10;;;;;;;3.73;3.40;;;19.90;99.90;;;;;;4994527;28;20437;-67
2022/09/09 01:14:39;;;;;;;2.80;2.60;;;19.90;99.90;;;;;;5014272;28;20460;-67
2022/09/09 01:17:15;;;;;;;3.10;2.90;;;19.90;99.90;;;;;;5016843;28;20420;-66
2022/09/09 01:19:55;;;;;;;3.97;3.30;;;19.90;99.90;;;;;;4996503;28;20461;-67
2022/09/09 01:22:40;;;;;;;3.70;3.43;;;19.80;99.90;;;;;;5016629;28;20448;-66
2022/09/09 01:25:27;;;;;;;3.60;3.40;;;19.80;99.90;;;;;;5015297;28;20433;-66
2022/09/09 01:27:57;;;;;;;4.13;3.93;;;19.90;99.90;;;;;;5015951;28;20402;-66
2022/09/09 01:30:24;;;;;;;3.40;3.20;;;19.70;99.90;;;;;;5005892;28;20431;-66
2022/09/09 01:32:54;;;;;;;4.00;3.63;;;19.70;99.90;;;;;;4996085;28;20731;-66
2022/09/09 01:35:44;;;;;;;3.70;3.30;;;19.60;99.90;;;;;;4996395;28;20446;-66
2022/09/09 01:38:10;;;;;;;3.67;3.47;;;19.70;99.90;;;;;;4996756;28;20472;-66
2022/09/09 01:40:36;;;;;;;3.60;3.30;;;19.70;99.90;;;;;;4995952;28;20937;-67
2022/09/09 01:43:02;;;;;;;3.90;3.60;;;19.80;99.90;;;;;;4996590;28;20794;-67
2022/09/09 01:45:28;;;;;;;3.20;2.97;;;19.80;99.90;;;;;;4996536;28;20421;-67
2022/09/09 01:47:54;;;;;;;3.03;2.90;;;19.90;99.90;;;;;;4994629;28;20422;-66
2022/09/09 01:50:20;;;;;;;3.93;3.63;;;19.90;99.90;;;;;;5007102;28;20441;-67
2022/09/09 01:52:50;;;;;;;3.20;3.00;;;20.00;99.90;;;;;;4998713;28;20508;-67
2022/09/09 01:55:18;;;;;;;4.27;3.40;;;20.00;99.90;;;;;;5015210;28;20421;-67
2022/09/09 01:57:56;;;;;;;4.13;3.83;;;20.10;99.90;;;;;;5015334;28;20409;-67
2022/09/09 02:00:21;;;;;;;3.93;3.60;;;20.10;99.90;;;;;;5014195;28;20836;-66
2022/09/09 02:02:53;;;;;;;3.33;3.03;;;20.10;99.90;;;;;;5015208;28;20414;-66
2022/09/09 02:05:36;;;;;;;4.30;3.90;;;20.10;99.90;;;;;;5015927;28;20183;-66
2022/09/09 02:08:23;;;;;;;3.40;3.20;;;20.10;99.90;;;;;;5015913;28;20460;-66
2022/09/09 02:11:06;;;;;;;2.70;2.60;;;20.10;99.90;;;;;;5014849;28;20878;-67
2022/09/09 02:13:36;;;;;;;2.97;2.87;;;20.10;99.90;;;;;;5015740;28;20414;-66
2022/09/09 02:16:07;;;;;;;3.00;2.83;;;20.10;99.90;;;;;;5015265;28;20430;-66
2022/09/09 02:18:39;;;;;;;5.70;3.20;;;20.10;99.90;;;;;;5013635;28;20433;-66
2022/09/09 02:21:07;;;;;;;3.20;2.90;;;20.10;99.90;;;;;;5014471;28;20458;-66
2022/09/09 02:23:34;;;;;;;2.67;2.53;;;20.00;99.90;;;;;;5014335;28;20433;-67
2022/09/09 02:26:02;;;;;;;3.00;2.80;;;19.90;99.90;;;;;;5014991;28;20406;-66
2022/09/09 02:28:31;;;;;;;2.70;2.50;;;19.80;99.90;;;;;;5015392;28;20425;-66
2022/09/09 02:30:58;;;;;;;3.43;2.80;;;19.80;99.90;;;;;;5014712;28;20864;-66
2022/09/09 02:33:28;;;;;;;2.90;2.80;;;19.70;99.90;;;;;;5013809;28;20402;-66
2022/09/09 02:36:01;;;;;;;2.87;2.67;;;19.70;99.90;;;;;;5014490;28;20450;-66
2022/09/09 02:38:29;;;;;;;3.30;2.60;;;19.70;99.90;;;;;;5015250;28;20440;-66
2022/09/09 02:40:55;;;;;;;2.43;2.23;;;19.60;99.90;;;;;;5014414;28;20802;-66
2022/09/09 02:43:20;;;;;;;3.13;2.90;;;19.20;99.90;;;;;;5013705;28;20416;-66
2022/09/09 02:46:02;;;;;;;2.40;2.30;;;19.20;99.90;;;;;;5012735;28;20531;-66
2022/09/09 02:49:05;;;;;;;2.50;2.40;;;19.10;99.90;;;;;;4998037;28;20217;-67
2022/09/09 02:51:47;;;;;;;3.10;2.90;;;19.10;99.90;;;;;;5015030;28;20412;-66
2022/09/09 02:54:16;;;;;;;3.30;3.10;;;19.20;99.90;;;;;;5014718;28;20889;-66
2022/09/09 02:56:49;;;;;;;3.10;2.90;;;19.20;99.90;;;;;;5013936;28;20406;-67
2022/09/09 02:59:16;;;;;;;3.20;3.00;;;19.30;99.90;;;;;;4997210;28;20458;-66
2022/09/09 03:01:42;;;;;;;3.30;3.10;;;19.20;99.90;;;;;;5013806;28;20483;-66
2022/09/09 03:04:07;;;;;;;3.90;3.60;;;19.30;99.90;;;;;;5014592;28;20496;-66
2022/09/09 03:06:33;;;;;;;3.60;3.30;;;19.30;99.90;;;;;;5014204;28;20175;-66
2022/09/09 03:09:01;;;;;;;3.27;3.10;;;19.40;99.90;;;;;;5013735;28;20265;-66
2022/09/09 03:11:27;;;;;;;3.50;3.20;;;19.40;99.90;;;;;;5013526;28;20501;-66
2022/09/09 03:13:55;;;;;;;4.67;3.73;;;19.40;99.90;;;;;;4996280;28;20912;-66
2022/09/09 03:16:24;;;;;;;3.60;3.40;;;19.40;99.90;;;;;;5013388;28;20760;-66
2022/09/09 03:18:50;;;;;;;3.00;2.90;;;19.30;99.90;;;;;;5013757;28;20406;-66
2022/09/09 03:21:16;;;;;;;4.50;3.40;;;19.20;99.90;;;;;;5013992;28;20597;-66
2022/09/09 03:23:42;;;;;;;3.37;3.10;;;19.20;99.90;;;;;;5013211;28;20451;-67
2022/09/09 03:26:07;;;;;;;3.40;3.13;;;19.30;99.90;;;;;;5014298;28;20171;-66
2022/09/09 03:28:35;;;;;;;3.27;3.03;;;19.30;99.90;;;;;;5012781;28;20171;-66
2022/09/09 03:31:02;;;;;;;3.07;2.87;;;19.40;99.90;;;;;;5013599;28;20398;-66
2022/09/09 03:33:29;;;;;;;4.20;3.30;;;19.40;99.90;;;;;;5012993;28;20928;-66
2022/09/09 03:35:56;;;;;;;5.43;3.20;;;19.30;99.90;;;;;;4994110;28;20454;-66
2022/09/09 03:38:25;;;;;;;4.70;4.07;;;19.20;99.90;;;;;;5012306;28;20566;-67
2022/09/09 03:40:57;;;;;;;5.20;3.07;;;19.20;99.90;;;;;;5013337;28;20446;-66
2022/09/09 03:43:24;;;;;;;3.43;3.13;;;19.30;99.90;;;;;;5010653;28;20457;-65
2022/09/09 03:45:50;;;;;;;4.40;4.00;;;19.30;99.90;;;;;;5001768;28;20433;-66
2022/09/09 03:48:17;;;;;;;3.77;3.50;;;19.30;99.90;;;;;;5013570;28;20429;-66
2022/09/09 03:50:51;;;;;;;5.43;4.70;;;19.20;99.90;;;;;;5011773;28;20430;-66
2022/09/09 03:53:19;;;;;;;4.70;4.40;;;19.10;99.90;;;;;;5013712;28;20398;-66
2022/09/09 03:55:52;;;;;;;3.77;3.47;;;19.20;99.90;;;;;;5013067;28;20782;-66
2022/09/09 03:58:18;;;;;;;5.40;3.37;;;19.10;99.90;;;;;;5013556;28;20417;-65
2022/09/09 04:00:56;;;;;;;5.00;4.57;;;19.10;99.90;;;;;;5012977;28;20461;-66
2022/09/09 04:03:24;;;;;;;3.90;3.47;;;19.00;99.90;;;;;;5013567;28;20494;-66
2022/09/09 04:05:54;;;;;;;5.47;4.10;;;19.00;99.90;;;;;;5010221;28;20480;-67
2022/09/09 04:08:20;;;;;;;4.00;3.70;;;19.00;99.90;;;;;;4991907;28;20429;-67
2022/09/09 04:10:51;;;;;;;3.67;3.00;;;19.10;99.90;;;;;;4997812;28;20413;-67
2022/09/09 04:13:19;;;;;;;3.97;3.67;;;19.20;99.90;;;;;;5011065;28;20423;-67
2022/09/09 04:15:51;;;;;;;4.97;2.50;;;19.20;99.90;;;;;;5004182;28;20426;-67
2022/09/09 04:18:17;;;;;;;3.30;3.00;;;19.30;99.90;;;;;;4993830;28;20399;-67
2022/09/09 04:20:43;;;;;;;4.60;4.30;;;19.40;99.90;;;;;;4992825;28;20504;-67
2022/09/09 04:23:09;;;;;;;3.73;3.50;;;19.30;99.90;;;;;;4993819;28;20175;-66
2022/09/09 04:25:35;;;;;;;6.80;3.00;;;19.30;99.90;;;;;;5010800;28;20453;-67
2022/09/09 04:28:00;;;;;;;3.67;3.33;;;19.30;99.90;;;;;;4991261;28;20807;-67
2022/09/09 04:30:27;;;;;;;3.60;3.30;;;19.40;99.90;;;;;;5005774;28;20630;-67
2022/09/09 04:32:53;;;;;;;6.80;6.10;;;19.40;99.90;;;;;;4997163;28;20179;-67
2022/09/09 04:35:19;;;;;;;5.10;4.80;;;19.50;99.90;;;;;;4993369;28;20893;-67
2022/09/09 04:37:46;;;;;;;4.67;4.00;;;19.40;99.90;;;;;;4992904;28;20473;-67
2022/09/09 04:40:11;;;;;;;3.60;3.33;;;19.50;99.90;;;;;;4993507;28;20447;-67
2022/09/09 04:42:38;;;;;;;3.87;3.30;;;19.50;99.90;;;;;;5011090;28;20414;-67
2022/09/09 04:45:05;;;;;;;3.90;3.70;;;19.50;99.90;;;;;;5000048;28;20231;-67
2022/09/09 04:47:31;;;;;;;6.30;5.70;;;19.30;99.90;;;;;;5012469;28;20418;-67
2022/09/09 04:49:56;;;;;;;3.77;3.47;;;19.30;99.90;;;;;;5012366;28;20821;-67
2022/09/09 04:52:22;;;;;;;5.80;5.50;;;19.30;99.90;;;;;;5012916;28;20167;-67
2022/09/09 04:54:48;;;;;;;9.10;7.60;;;19.30;99.90;;;;;;5012287;28;20592;-67
2022/09/09 04:57:13;;;;;;;3.93;3.63;;;19.10;99.90;;;;;;5013080;28;20189;-67
2022/09/09 04:59:39;;;;;;;5.27;4.87;;;19.00;99.90;;;;;;5012665;28;20265;-67
2022/09/09 05:02:05;;;;;;;3.97;3.57;;;19.00;99.90;;;;;;5012558;28;20171;-67
2022/09/09 05:04:32;;;;;;;4.53;4.10;;;19.10;99.90;;;;;;5012799;28;20175;-67
2022/09/09 05:06:59;;;;;;;5.43;4.90;;;19.10;99.90;;;;;;5012244;28;20424;-67
2022/09/09 05:09:25;;;;;;;4.13;3.07;;;19.20;99.90;;;;;;5012523;28;20402;-67
2022/09/09 05:11:51;;;;;;;5.67;5.17;;;19.30;99.90;;;;;;4994596;28;20756;-67
2022/09/09 05:14:17;;;;;;;5.00;4.70;;;19.40;99.90;;;;;;5011682;28;20409;-67
2022/09/09 05:16:45;;;;;;;4.87;3.47;;;19.30;99.90;;;;;;5011970;28;20441;-66
2022/09/09 05:19:11;;;;;;;3.43;3.13;;;19.40;99.90;;;;;;5012725;28;20976;-67
2022/09/09 05:21:37;;;;;;;6.30;6.00;;;19.50;99.90;;;;;;5012582;28;20887;-67
2022/09/09 05:24:03;;;;;;;3.87;3.00;;;19.40;99.90;;;;;;5012046;28;20430;-67
2022/09/09 05:26:29;;;;;;;4.27;3.97;;;19.40;99.90;;;;;;5012701;28;20279;-67
2022/09/09 05:28:55;;;;;;;4.00;3.80;;;19.20;99.90;;;;;;5012033;28;20410;-67
2022/09/09 05:31:21;;;;;;;3.90;3.63;;;19.20;99.90;;;;;;5012562;28;20424;-67
2022/09/09 05:33:49;;;;;;;3.57;3.30;;;19.20;99.90;;;;;;5011776;28;20410;-67
2022/09/09 05:36:20;;;;;;;3.57;3.27;;;19.30;99.90;;;;;;5004337;28;20488;-67
2022/09/09 05:38:47;;;;;;;2.97;2.77;;;19.40;99.90;;;;;;5007262;28;20553;-72
2022/09/09 05:41:17;;;;;;;7.20;3.40;;;19.50;99.90;;;;;;5011526;28;20541;-67
2022/09/09 05:43:44;;;;;;;2.73;2.53;;;19.50;99.90;;;;;;5006511;28;20411;-65
2022/09/09 05:46:21;;;;;;;3.83;3.43;;;19.60;99.90;;;;;;5006774;28;20434;-67
2022/09/09 05:48:47;;;;;;;2.53;2.33;;;19.60;99.90;;;;;;5009787;28;20484;-73
2022/09/09 05:51:15;;;;;;;2.80;2.60;;;19.60;99.90;;;;;;5011567;28;20505;-66
2022/09/09 05:53:41;;;;;;;3.73;2.60;;;19.60;99.90;;;;;;5010983;28;20527;-66
2022/09/09 05:56:10;;;;;;;6.27;5.87;;;19.60;99.90;;;;;;5008342;28;20438;-67
2022/09/09 05:58:37;;;;;;;4.20;3.90;;;19.50;99.90;;;;;;5006854;28;20429;-68
2022/09/09 06:01:04;;;;;;;4.00;3.80;;;19.70;99.90;;;;;;5010337;28;20476;-68
2022/09/09 06:03:30;;;;;;;5.40;5.00;;;20.00;99.90;;;;;;4952466;29;20471;-67
2022/09/09 06:06:07;;;;;;;3.73;3.53;;;20.10;99.90;;;;;;4953933;29;20892;-68
2022/09/09 06:08:38;;;;;;;3.90;3.63;;;20.30;99.90;;;;;;4953843;29;20197;-67
2022/09/09 06:11:10;;;;;;;4.50;2.60;;;20.60;99.90;;;;;;4954280;29;20436;-67
2022/09/09 06:13:38;;;;;;;4.33;3.10;;;20.50;99.90;;;;;;4954826;29;20425;-67
2022/09/09 06:16:06;;;;;;;2.60;2.50;;;20.50;99.90;;;;;;4952488;29;20512;-67
2022/09/09 06:18:33;;;;;;;3.93;3.63;;;20.50;99.90;;;;;;4953574;29;20428;-68
2022/09/09 06:21:01;;;;;;;5.40;5.10;;;20.70;99.90;;;;;;4952278;29;21271;-67
2022/09/09 06:23:28;;;;;;;5.73;4.60;;;20.70;99.90;;;;;;4950310;29;20533;-69
2022/09/09 06:26:14;;;;;;;5.07;4.40;;;20.50;99.90;;;;;;4947700;28;20440;-68
2022/09/09 06:28:42;;;;;;;3.47;3.17;;;20.60;99.90;;;;;;4934901;29;20445;-68
2022/09/09 06:31:11;;;;;;;3.87;3.57;;;20.70;99.90;;;;;;4947608;29;20572;-71
2022/09/09 06:33:58;;;;;;;6.23;3.53;;;20.80;99.90;;;;;;4950516;29;20539;-67
2022/09/09 06:36:29;;;;;;;3.37;3.17;;;20.70;99.90;;;;;;4950946;29;20464;-68
2022/09/09 06:38:55;;;;;;;4.83;3.30;;;20.80;99.90;;;;;;4951170;29;20903;-71
2022/09/09 06:41:23;;;;;;;3.80;3.60;;;20.70;99.90;;;;;;4989239;28;20465;-70
2022/09/09 06:43:49;;;;;;;3.70;3.50;;;20.70;99.90;;;;;;5002931;28;20432;-73
2022/09/09 06:46:24;;;;;;;3.80;3.60;;;20.80;99.90;;;;;;5007953;28;20973;-67
2022/09/09 06:48:50;;;;;;;4.07;3.67;;;20.80;99.90;;;;;;5010316;28;20195;-74
2022/09/09 06:51:23;;;;;;;3.40;3.20;;;20.80;99.90;;;;;;5008862;28;20825;-68
2022/09/09 06:53:54;;;;;;;3.30;3.20;;;20.80;99.90;;;;;;5006438;28;20199;-68
2022/09/09 06:56:27;;;;;;;3.70;3.50;;;20.90;99.90;;;;;;4996304;28;20949;-68
2022/09/09 06:58:54;;;;;;;3.80;3.60;;;20.70;99.90;;;;;;4992629;28;20848;-70
2022/09/09 07:01:25;;;;;;;3.77;3.47;;;20.30;99.90;;;;;;5010813;28;20457;-64
2022/09/09 07:03:54;;;;;;;3.50;3.30;;;20.10;99.90;;;;;;5000964;28;21335;-69
2022/09/09 07:06:23;;;;;;;3.60;3.30;;;20.00;99.90;;;;;;5004594;28;20426;-65
2022/09/09 07:08:51;;;;;;;3.77;3.57;;;19.90;99.90;;;;;;5010308;28;20433;-64
2022/09/09 07:11:18;;;;;;;4.40;4.10;;;20.10;99.90;;;;;;5007405;28;20761;-64
2022/09/09 07:13:43;;;;;;;2.80;2.60;;;20.30;99.90;;;;;;5012443;28;20419;-65
2022/09/09 07:16:15;;;;;;;3.53;3.20;;;20.40;99.90;;;;;;5012372;28;20509;-64
2022/09/09 07:18:41;;;;;;;3.30;3.10;;;20.60;99.90;;;;;;5013106;28;20183;-65
2022/09/09 07:21:09;;;;;;;3.23;2.83;;;20.70;99.90;;;;;;5009221;28;20474;-65
2022/09/09 07:23:38;;;;;;;2.90;2.80;;;20.80;99.90;;;;;;4972518;28;20431;-65
2022/09/09 07:26:12;;;;;;;5.30;5.00;;;20.80;99.90;;;;;;4993241;28;20922;-65
2022/09/09 07:28:38;;;;;;;3.20;3.00;;;20.80;99.90;;;;;;4993997;28;20606;-64
2022/09/09 07:31:05;;;;;;;2.63;2.43;;;20.80;99.90;;;;;;4998526;28;20472;-65
2022/09/09 07:33:33;;;;;;;3.23;3.03;;;20.90;99.90;;;;;;5012332;28;20816;-68
2022/09/09 07:36:12;;;;;;;3.80;2.87;;;21.00;99.90;;;;;;4993327;28;20466;-64
2022/09/09 07:38:45;;;;;;;4.80;3.20;;;20.50;99.90;;;;;;4994064;28;20413;-64
2022/09/09 07:41:39;;;;;;;3.70;2.80;;;20.50;99.90;;;;;;4993172;28;20446;-65
2022/09/09 07:44:08;;;;;;;2.70;2.50;;;20.80;99.90;;;;;;4989717;28;20419;-65
2022/09/09 07:46:35;;;;;;;3.50;3.20;;;21.00;99.90;;;;;;4993812;28;20415;-65
2022/09/09 07:49:02;;;;;;;3.00;2.80;;;21.10;99.90;;;;;;5005399;28;20925;-65
2022/09/09 07:51:33;;;;;;;3.67;3.40;;;21.10;99.90;;;;;;5013621;28;20415;-65
2022/09/09 07:54:05;;;;;;;5.73;3.37;;;21.20;99.90;;;;;;5012335;28;20421;-65
2022/09/09 07:56:32;;;;;;;4.33;3.40;;;21.30;99.90;;;;;;5013443;28;20780;-64
2022/09/09 07:58:58;;;;;;;3.97;3.73;;;21.30;99.90;;;;;;4994996;28;20417;-66
2022/09/09 08:01:31;;;;;;;3.17;2.97;;;21.20;99.90;;;;;;5013096;28;20453;-65
2022/09/09 08:04:05;;;;;;;3.93;3.60;;;21.30;99.90;;;;;;5011989;28;20432;-64
2022/09/09 08:06:34;;;;;;;3.67;3.30;;;21.40;99.90;;;;;;5013093;28;20433;-64
2022/09/09 08:09:00;;;;;;;3.43;2.90;;;21.00;99.80;;;;;;5009488;28;20426;-61
2022/09/09 08:11:28;;;;;;;4.63;3.50;;;20.80;99.90;;;;;;5008903;28;20417;-61
2022/09/09 08:13:55;;;;;;;4.40;3.60;;;20.70;99.90;;;;;;5012849;28;20270;-61
2022/09/09 08:16:23;;;;;;;4.23;2.60;;;20.40;99.90;;;;;;5013372;28;20414;-61
2022/09/09 08:18:51;;;;;;;4.13;2.30;;;20.30;99.90;;;;;;4995732;28;20926;-61
2022/09/09 08:21:31;;;;;;;3.00;2.70;;;20.10;99.90;;;;;;5012723;28;20528;-61
2022/09/09 08:23:59;;;;;;;3.00;2.37;;;20.20;99.90;;;;;;5010955;28;20464;-61
2022/09/09 08:26:30;;;;;;;2.80;2.60;;;20.30;99.90;;;;;;4999656;28;20489;-62
2022/09/09 08:28:58;;;;;;;7.07;2.60;;;20.20;99.90;;;;;;4993055;28;20407;-62
2022/09/09 08:31:30;;;;;;;3.30;3.00;;;20.30;99.90;;;;;;4993811;28;20419;-61
2022/09/09 08:33:59;;;;;;;5.73;5.33;;;20.10;99.90;;;;;;5011633;28;20422;-68
2022/09/09 08:36:26;;;;;;;4.23;3.93;;;20.20;99.90;;;;;;5013130;28;20449;-61
2022/09/09 08:38:55;;;;;;;4.10;3.80;;;20.20;99.90;;;;;;5012216;28;20745;-61
2022/09/09 08:41:48;;;;;;;3.40;3.20;;;20.10;99.90;;;;;;5012611;28;20528;-61
2022/09/09 08:44:17;;;;;;;3.80;2.80;;;20.10;99.90;;;;;;5012489;28;20382;-61
2022/09/09 08:47:20;;;;;;;3.17;2.97;;;20.40;99.90;;;;;;5012933;28;20800;-61
2022/09/09 08:50:05;;;;;;;3.73;2.83;;;20.40;99.90;;;;;;5012731;28;20401;-61
2022/09/09 08:52:40;;;;;;;3.23;2.63;;;20.50;99.70;;;;;;5012907;28;20394;-61
2022/09/09 08:55:27;;;;;;;4.40;2.63;;;20.50;99.50;;;;;;5006527;28;20431;-62
2022/09/09 08:57:55;;;;;;;3.77;3.10;;;20.70;99.40;;;;;;5002865;28;20414;-61
2022/09/09 09:00:25;;;;;;;5.23;3.30;;;20.70;99.10;;;;;;4990643;28;20572;-62
2022/09/09 09:03:27;;;;;;;5.47;3.17;;;20.60;98.60;;;;;;4973765;28;20439;-62
2022/09/09 09:06:22;;;;;;;3.80;3.57;;;20.80;97.90;;;;;;4951434;28;20927;-61
2022/09/09 09:09:14;;;;;;;3.40;2.90;;;20.80;98.20;;;;;;4971633;28;20557;-62
2022/09/09 09:11:51;;;;;;;2.70;2.50;;;20.90;97.90;;;;;;4971528;28;20559;-62
2022/09/09 09:14:25;;;;;;;4.40;3.07;;;20.90;98.00;;;;;;4970904;28;20771;-61
2022/09/09 09:16:56;;;;;;;3.23;2.93;;;21.00;97.20;;;;;;4969710;28;20506;-61
2022/09/09 09:19:24;;;;;;;4.40;4.03;;;21.10;97.00;;;;;;4970792;28;20412;-61
2022/09/09 09:22:25;;;;;;;3.60;3.30;;;21.00;96.50;;;;;;4971354;28;20455;-61
2022/09/09 09:25:11;;;;;;;5.57;3.80;;;20.90;96.90;;;;;;4952160;29;20448;-61
2022/09/09 09:27:47;;;;;;;5.53;3.03;;;21.20;97.00;;;;;;4952131;29;20431;-61
2022/09/09 09:30:22;;;;;;;4.10;3.07;;;21.40;96.20;;;;;;4956896;28;20751;-61
2022/09/09 09:33:00;;;;;;;5.57;3.13;;;21.60;95.50;;;;;;4969778;28;20435;-61
2022/09/09 09:35:26;;;;;;;3.10;2.90;;;21.50;95.50;;;;;;5001128;28;20572;-61
2022/09/09 09:37:52;;;;;;;4.57;3.43;;;21.60;95.50;;;;;;5013239;28;20916;-62
2022/09/09 09:40:20;;;;;;;4.20;3.30;;;21.80;94.10;;;;;;5006361;28;20539;-61
2022/09/09 09:42:59;;;;;;;6.00;3.60;;;21.80;93.30;;;;;;5016243;28;20410;-61
2022/09/09 09:45:48;;;;;;;3.20;2.90;;;21.80;94.00;;;;;;5016305;28;20401;-61
2022/09/09 09:48:14;;;;;;;5.00;3.40;;;21.90;93.60;;;;;;4997775;28;20866;-61
2022/09/09 09:50:48;;;;;;;4.53;3.83;;;22.00;92.50;;;;;;5016144;28;20479;-61
2022/09/09 09:53:25;;;;;;;2.67;2.50;;;22.10;92.20;;;;;;5015487;28;20493;-61
2022/09/09 09:56:08;;;;;;;5.00;3.60;;;22.20;92.50;;;;;;4998605;28;20409;-61
2022/09/09 09:58:50;;;;;;;3.53;3.33;;;22.20;91.70;;;;;;5015931;28;20870;-61
2022/09/09 10:01:26;;;;;;;3.87;2.80;;;22.10;91.30;;;;;;5014552;28;20489;-61
2022/09/09 10:04:01;;;;;;;3.40;3.20;;;22.00;92.50;;;;;;5015948;28;20444;-61
2022/09/09 10:06:32;;;;;;;5.60;3.70;;;21.90;92.40;;;;;;5015472;28;20464;-61
2022/09/09 10:09:01;;;;;;;2.67;2.50;;;22.00;92.00;;;;;;4954934;29;20408;-61
2022/09/09 10:11:52;;;;;;;2.93;2.50;;;22.10;91.90;;;;;;4955167;29;20431;-61
2022/09/09 10:14:29;;;;;;;2.87;2.20;;;22.20;91.70;;;;;;4954443;29;20416;-61
2022/09/09 10:17:09;;;;;;;3.30;2.97;;;22.30;91.00;;;;;;4955005;29;20447;-61
2022/09/09 10:19:37;;;;;;;2.67;2.50;;;22.40;90.60;;;;;;4954865;29;20416;-61
2022/09/09 10:22:26;;;;;;;4.90;4.50;;;22.70;90.20;;;;;;4954245;29;20424;-62
2022/09/09 10:25:01;;;;;;;4.20;3.80;;;22.60;89.40;;;;;;4954910;29;20444;-61
2022/09/09 10:27:39;;;;;;;3.80;2.43;;;22.90;89.20;;;;;;4954172;29;20507;-61
2022/09/09 10:30:12;;;;;;;2.70;2.50;;;23.10;88.20;;;;;;4954032;29;20443;-61
2022/09/09 10:32:57;;;;;;;2.70;2.17;;;23.20;86.10;;;;;;4938743;29;20448;-61
2022/09/09 10:35:33;;;;;;;2.00;1.90;;;23.00;86.00;;;;;;4958268;28;20486;-61
2022/09/09 10:38:29;;;;;;;3.67;3.37;;;23.00;86.20;;;;;;4973936;28;20418;-61
2022/09/09 10:40:56;;;;;;;2.13;2.03;;;23.00;84.50;;;;;;4993027;28;20558;-61
2022/09/09 10:43:39;;;;;;;4.13;2.77;;;22.90;86.40;;;;;;4994973;28;20483;-61
2022/09/09 10:46:19;;;;;;;4.77;2.90;;;22.90;86.30;;;;;;4994211;28;20399;-62
2022/09/09 10:49:23;;;;;;;4.17;2.80;;;23.00;86.10;;;;;;4995293;28;20887;-61
2022/09/09 10:52:15;;;;;;;2.40;2.20;;;23.00;85.80;;;;;;4995448;28;20445;-61
2022/09/09 10:55:08;;;;;;;4.80;3.50;;;22.90;85.20;;;;;;4995270;28;20403;-61
2022/09/09 10:57:38;;;;;;;3.40;2.80;;;22.70;85.90;;;;;;5004222;28;20433;-61
2022/09/09 11:00:14;;;;;;;4.67;2.93;;;22.70;87.20;;;;;;5014665;28;20485;-68
2022/09/09 11:02:41;;;;;;;2.53;2.40;;;22.70;85.80;;;;;;5014829;28;20406;-61
2022/09/09 11:05:21;;;;;;;2.73;2.53;;;22.70;87.20;;;;;;5014195;28;20409;-62
2022/09/09 11:07:57;;;;;;;3.20;2.80;;;22.90;87.20;;;;;;5015044;28;20408;-61
2022/09/09 11:10:54;;;;;;;4.10;3.80;;;22.90;85.90;;;;;;5014109;28;20513;-61
2022/09/09 11:13:39;;;;;;;3.63;3.33;;;22.90;86.60;;;;;;5014045;28;20394;-61
2022/09/09 11:16:28;;;;;;;3.03;2.90;;;22.90;86.10;;;;;;5014524;28;20472;-68
2022/09/09 11:19:21;;;;;;;2.80;2.70;;;23.10;87.70;;;;;;4994485;28;20414;-61
2022/09/09 11:21:51;;;;;;;3.30;3.10;;;23.20;84.60;;;;;;5006983;28;20481;-61
2022/09/09 11:24:20;;;;;;;4.27;2.87;;;23.40;83.80;;;;;;5012651;28;20434;-62
2022/09/09 11:26:53;;;;;;;2.80;2.60;;;23.50;85.00;;;;;;5012914;28;20537;-61
2022/09/09 11:29:40;;;;;;;3.03;2.87;;;23.50;82.10;;;;;;5013744;28;20909;-61
2022/09/09 11:32:25;;;;;;;2.80;2.70;;;23.30;81.70;;;;;;5013853;28;20399;-67
2022/09/09 11:35:19;;;;;;;3.07;2.60;;;23.40;83.10;;;;;;4995477;28;20770;-61
2022/09/09 11:37:56;;;;;;;3.50;3.30;;;23.30;81.50;;;;;;5013920;28;20463;-61
2022/09/09 11:40:26;;;;;;;2.90;2.67;;;23.30;83.10;;;;;;5013422;28;20780;-61
2022/09/09 11:43:29;;;;;;;2.90;2.80;;;23.30;82.80;;;;;;5014355;28;20398;-61
2022/09/09 11:45:58;;;;;;;2.80;2.70;;;23.20;81.00;;;;;;5013964;28;20394;-61
2022/09/09 11:48:33;;;;;;;3.93;3.30;;;23.10;81.70;;;;;;5013269;28;20456;-61
2022/09/09 11:51:04;;;;;;;5.60;3.60;;;23.00;83.40;;;;;;5013862;28;20401;-61
2022/09/09 11:53:31;;;;;;;3.60;3.40;;;22.90;83.50;;;;;;5013152;28;20394;-61
2022/09/09 11:56:31;;;;;;;3.77;3.40;;;22.80;83.40;;;;;;5010193;28;20418;-63
2022/09/09 11:59:24;;;;;;;4.33;4.13;;;22.80;84.20;;;;;;4994664;28;20435;-62
2022/09/09 12:01:59;;;;;;;2.77;2.17;;;22.70;83.90;;;;;;4994089;28;20853;-61
2022/09/09 12:04:25;;;;;;;2.30;2.20;;;22.80;84.40;;;;;;4991117;28;20429;-61
2022/09/09 12:06:53;;;;;;;4.17;3.93;;;23.00;84.90;;;;;;5009638;28;20500;-62
2022/09/09 12:09:27;;;;;;;3.57;3.37;;;22.90;85.90;;;;;;5012918;28;20188;-62
2022/09/09 12:12:25;;;;;;;2.70;2.50;;;23.00;86.10;;;;;;5012455;28;20524;-61
2022/09/09 12:15:07;;;;;;;2.50;2.30;;;23.10;82.70;;;;;;4994026;28;20470;-61
2022/09/09 12:17:45;;;;;;;2.47;2.33;;;23.10;84.60;;;;;;5007314;28;20446;-62
2022/09/09 12:20:35;;;;;;;3.00;2.70;;;22.90;82.80;;;;;;4999731;28;20880;-62
2022/09/09 12:23:21;;;;;;;3.07;2.97;;;23.00;83.80;;;;;;4993612;28;20396;-61
2022/09/09 12:26:10;;;;;;;3.70;3.57;;;23.00;83.10;;;;;;5002117;28;20512;-61
2022/09/09 12:28:54;;;;;;;2.63;2.43;;;22.90;83.00;;;;;;4972189;28;20443;-61
2022/09/09 12:31:47;;;;;;;2.93;2.23;;;22.80;83.30;;;;;;4975420;28;20395;-61
2022/09/09 12:34:25;;;;;;;4.00;2.70;;;22.70;84.30;;;;;;5001183;28;20430;-61
2022/09/09 12:37:00;;;;;;;5.33;3.23;;;22.50;86.80;;;;;;5002944;28;20526;-61
2022/09/09 12:39:41;;;;;;;2.43;2.33;;;22.30;92.60;;;;;;5007781;28;20921;-61
2022/09/09 12:42:18;;;;;;;3.67;2.80;;;22.30;95.60;;;;;;5012909;28;20754;-61
2022/09/09 12:44:58;;;;;;;4.33;2.23;;;22.20;96.30;;;;;;5009171;28;20484;-61
2022/09/09 12:47:42;;;;;;;2.83;2.50;;;22.20;95.10;;;;;;5011802;28;20865;-61
2022/09/09 12:50:29;;;;;;;3.17;3.00;;;22.10;96.50;;;;;;4952360;29;20882;-61
2022/09/09 12:53:02;;;;;;;3.40;3.20;;;22.10;96.00;;;;;;4952409;29;20971;-61
2022/09/09 12:55:33;;;;;;;2.70;2.50;;;21.90;95.40;;;;;;4951606;29;20841;-61
2022/09/09 12:58:00;;;;;;;5.10;2.80;;;22.10;97.50;;;;;;4951773;29;20472;-61
2022/09/09 13:00:27;;;;;;;4.87;4.57;;;22.20;97.00;;;;;;4951620;29;20456;-61
2022/09/09 13:03:01;;;;;;;2.67;2.50;;;22.30;97.20;;;;;;4952305;29;20413;-61
2022/09/09 13:05:41;;;;;;;3.00;2.70;;;22.40;97.20;;;;;;4951677;29;20424;-62
2022/09/09 13:08:10;;;;;;;2.33;2.13;;;22.40;96.70;;;;;;4952225;29;20771;-61
2022/09/09 13:11:00;;;;;;;2.40;2.30;;;22.40;95.80;;;;;;4939194;29;20467;-61
2022/09/09 13:13:38;;;;;;;2.57;2.37;;;22.40;93.20;;;;;;4951561;29;20440;-61
2022/09/09 13:16:08;;;;;;;3.43;2.20;;;22.40;93.20;;;;;;4916840;29;20608;-63
2022/09/09 13:18:40;;;;;;;3.20;2.90;;;22.30;92.60;;;;;;4955465;29;20414;-61
2022/09/09 13:21:06;;;;;;;2.50;2.40;;;22.30;90.70;;;;;;4985651;28;20472;-61
2022/09/09 13:23:35;;;;;;;2.50;2.40;;;22.30;90.90;;;;;;4998375;28;20746;-61